Aérodrome :
LOGIN :

S'inscrire | Disclaimer

   EN    FR    IT 

 










Légende :    VFR   VFR Marginal   IFR   IFR Intensif   IFR Très Intensif
Visi : 
Plafond : 
>= 8 km
>= 3000ft
5 à 8 km
1000 à 3000 ft
1500m à 5 km
500 à 1000 ft
800 à 1500m
200 à 500 ft
< 800m
< 200 ft
Symboles :   Orages  Brouillard  Fortes neiges  Fortes précipitations  Vent > 20 kt
SIGMETs :   Divers  Orages  Givrage  Turbulence  Onde Orograph.  Cendres Volcan.






- Altitude de l'aérodrome : 512 ft
- Code IATA : URO


LFOP - Rouen Vallée de Seine

DERNIER METAR :
  • 260400Z AUTO 22007KT CAVOK 07/07 Q1021

METARs EXPIRÉS :
  • 260330Z AUTO 21008KT 9999 4800 NSC 07/07 Q1021
  • 260300Z AUTO 22008KT CAVOK 08/07 Q1021
  • 260230Z AUTO 22006KT CAVOK 08/07 Q1021
  • 260200Z AUTO 23008KT CAVOK 08/08 Q1021
  • 260130Z AUTO 22006KT CAVOK 08/07 Q1021

TAF TAF LFOP
Valide du 25 à 18h jusqu'au 26 à 18h UTC


251700Z 2518/2618 20007KT 9999 BKN025
TEMPO 2518/2521 4000 SHRA BKN013 BKN025TCU
BECMG 2523/2602 2000 BR OVC002
PROB40 2602/2609 0300 FG VV///
BECMG 2609/2612 9999 NSW SCT013 BKN060
TEMPO 2612/2615 3000 RA OVC007
ATIS : +33 2 35 80 80 34
Météo : +33 2 32 86 52 80



MET'MAP, la Météo Aéronautique d'un coup d'oeil ! - Copyright ORBIFLY Décembre 2007 - Disclaimer

ORBIFLY MET'MAP TEAM :

Programmation & Développement : Alexandra Zaïnal
Sur une idée originale de : Baudouin d'Aumeries
Assistance à la programmation : Marc-Olivier Méhu
Soutien technique & logistique : Manuel Goepfert

Contact : metmap@orbifly.com




SOURCES & CREDITS :

   NOAA